sensor_id;sensor_type;location;lat;lon;timestamp;P1;durP1;ratioP1;P2;durP2;ratioP2
34565;SDS011;20803;42.676;26.348;2022-10-01T00:00:56;5.13;;;4.63;;
34565;SDS011;20803;42.676;26.348;2022-10-01T00:03:23;5.47;;;4.17;;
34565;SDS011;20803;42.676;26.348;2022-10-01T00:08:29;5.33;;;4.00;;
34565;SDS011;20803;42.676;26.348;2022-10-01T00:10:56;6.27;;;4.07;;
34565;SDS011;20803;42.676;26.348;2022-10-01T00:13:23;7.00;;;4.00;;
34565;SDS011;20803;42.676;26.348;2022-10-01T00:15:49;5.77;;;4.37;;
34565;SDS011;20803;42.676;26.348;2022-10-01T00:18:15;6.43;;;4.10;;
34565;SDS011;20803;42.676;26.348;2022-10-01T00:20:40;5.27;;;4.40;;
34565;SDS011;20803;42.676;26.348;2022-10-01T00:23:10;5.50;;;4.03;;
34565;SDS011;20803;42.676;26.348;2022-10-01T00:25:37;7.67;;;4.57;;
34565;SDS011;20803;42.676;26.348;2022-10-01T00:28:03;5.30;;;4.07;;
34565;SDS011;20803;42.676;26.348;2022-10-01T00:30:29;5.70;;;4.33;;
34565;SDS011;20803;42.676;26.348;2022-10-01T00:32:54;4.97;;;4.23;;
34565;SDS011;20803;42.676;26.348;2022-10-01T00:35:20;4.87;;;3.73;;
34565;SDS011;20803;42.676;26.348;2022-10-01T00:37:46;4.93;;;4.37;;
34565;SDS011;20803;42.676;26.348;2022-10-01T00:40:15;6.90;;;3.93;;
34565;SDS011;20803;42.676;26.348;2022-10-01T00:42:41;5.00;;;4.00;;
34565;SDS011;20803;42.676;26.348;2022-10-01T00:45:08;5.30;;;4.50;;
34565;SDS011;20803;42.676;26.348;2022-10-01T00:47:37;6.60;;;4.50;;
34565;SDS011;20803;42.676;26.348;2022-10-01T00:52:59;6.53;;;4.30;;
34565;SDS011;20803;42.676;26.348;2022-10-01T00:55:30;4.80;;;4.27;;
34565;SDS011;20803;42.676;26.348;2022-10-01T00:58:00;6.77;;;4.63;;
34565;SDS011;20803;42.676;26.348;2022-10-01T01:00:26;4.30;;;3.80;;
34565;SDS011;20803;42.676;26.348;2022-10-01T01:02:52;5.03;;;4.53;;
34565;SDS011;20803;42.676;26.348;2022-10-01T01:05:18;5.07;;;4.57;;
34565;SDS011;20803;42.676;26.348;2022-10-01T01:07:45;4.73;;;3.97;;
34565;SDS011;20803;42.676;26.348;2022-10-01T01:10:13;4.43;;;4.00;;
34565;SDS011;20803;42.676;26.348;2022-10-01T01:32:11;5.93;;;4.57;;
34565;SDS011;20803;42.676;26.348;2022-10-01T01:34:44;6.13;;;4.50;;
34565;SDS011;20803;42.676;26.348;2022-10-01T01:37:13;6.10;;;4.60;;
34565;SDS011;20803;42.676;26.348;2022-10-01T01:39:42;6.20;;;4.23;;
34565;SDS011;20803;42.676;26.348;2022-10-01T01:42:15;4.63;;;4.17;;
34565;SDS011;20803;42.676;26.348;2022-10-01T01:44:45;5.23;;;4.60;;
34565;SDS011;20803;42.676;26.348;2022-10-01T01:47:13;4.97;;;4.47;;
34565;SDS011;20803;42.676;26.348;2022-10-01T01:49:39;5.80;;;5.10;;
34565;SDS011;20803;42.676;26.348;2022-10-01T01:54:40;6.40;;;4.23;;
34565;SDS011;20803;42.676;26.348;2022-10-01T01:57:08;7.03;;;4.70;;
34565;SDS011;20803;42.676;26.348;2022-10-01T01:59:35;4.77;;;4.13;;
34565;SDS011;20803;42.676;26.348;2022-10-01T02:02:01;8.13;;;4.37;;
34565;SDS011;20803;42.676;26.348;2022-10-01T02:07:31;5.30;;;4.13;;
34565;SDS011;20803;42.676;26.348;2022-10-01T02:13:24;5.67;;;4.60;;
34565;SDS011;20803;42.676;26.348;2022-10-01T02:16:25;5.70;;;4.33;;
34565;SDS011;20803;42.676;26.348;2022-10-01T02:24:44;4.93;;;4.43;;
34565;SDS011;20803;42.676;26.348;2022-10-01T02:27:12;4.90;;;4.40;;
34565;SDS011;20803;42.676;26.348;2022-10-01T02:29:42;6.77;;;5.03;;
34565;SDS011;20803;42.676;26.348;2022-10-01T02:32:12;6.23;;;4.63;;
34565;SDS011;20803;42.676;26.348;2022-10-01T02:34:39;4.53;;;4.10;;
34565;SDS011;20803;42.676;26.348;2022-10-01T02:37:06;6.07;;;4.53;;
34565;SDS011;20803;42.676;26.348;2022-10-01T02:39:34;6.87;;;4.80;;
34565;SDS011;20803;42.676;26.348;2022-10-01T02:42:02;5.57;;;5.07;;
34565;SDS011;20803;42.676;26.348;2022-10-01T02:44:32;6.43;;;4.30;;
34565;SDS011;20803;42.676;26.348;2022-10-01T02:49:32;5.83;;;4.30;;
34565;SDS011;20803;42.676;26.348;2022-10-01T02:51:58;4.70;;;4.03;;
34565;SDS011;20803;42.676;26.348;2022-10-01T02:54:36;6.57;;;4.90;;
34565;SDS011;20803;42.676;26.348;2022-10-01T02:57:07;7.27;;;4.50;;
34565;SDS011;20803;42.676;26.348;2022-10-01T02:59:54;7.70;;;4.63;;
34565;SDS011;20803;42.676;26.348;2022-10-01T03:02:22;11.13;;;4.97;;
34565;SDS011;20803;42.676;26.348;2022-10-01T03:04:49;5.53;;;4.07;;
34565;SDS011;20803;42.676;26.348;2022-10-01T03:07:15;5.67;;;4.77;;
34565;SDS011;20803;42.676;26.348;2022-10-01T03:09:42;7.03;;;5.23;;
34565;SDS011;20803;42.676;26.348;2022-10-01T03:12:07;7.37;;;5.13;;
34565;SDS011;20803;42.676;26.348;2022-10-01T03:14:34;6.13;;;4.80;;
34565;SDS011;20803;42.676;26.348;2022-10-01T03:17:00;10.77;;;4.83;;
34565;SDS011;20803;42.676;26.348;2022-10-01T03:19:25;6.83;;;4.90;;
34565;SDS011;20803;42.676;26.348;2022-10-01T03:21:50;5.97;;;4.57;;
34565;SDS011;20803;42.676;26.348;2022-10-01T03:24:16;6.17;;;5.07;;
34565;SDS011;20803;42.676;26.348;2022-10-01T03:26:41;7.33;;;4.73;;
34565;SDS011;20803;42.676;26.348;2022-10-01T03:29:07;5.90;;;5.20;;
34565;SDS011;20803;42.676;26.348;2022-10-01T03:31:33;6.40;;;4.77;;
34565;SDS011;20803;42.676;26.348;2022-10-01T03:33:59;5.97;;;4.77;;
34565;SDS011;20803;42.676;26.348;2022-10-01T03:36:27;7.33;;;5.03;;
34565;SDS011;20803;42.676;26.348;2022-10-01T03:38:53;6.03;;;5.00;;
34565;SDS011;20803;42.676;26.348;2022-10-01T03:41:19;5.67;;;5.07;;
34565;SDS011;20803;42.676;26.348;2022-10-01T03:43:44;6.13;;;4.93;;
34565;SDS011;20803;42.676;26.348;2022-10-01T03:46:09;8.93;;;5.93;;
34565;SDS011;20803;42.676;26.348;2022-10-01T03:48:38;5.73;;;5.13;;
34565;SDS011;20803;42.676;26.348;2022-10-01T03:51:04;6.63;;;5.37;;
34565;SDS011;20803;42.676;26.348;2022-10-01T03:53:30;10.07;;;5.23;;
34565;SDS011;20803;42.676;26.348;2022-10-01T03:55:56;5.90;;;5.30;;
34565;SDS011;20803;42.676;26.348;2022-10-01T03:58:22;7.70;;;6.07;;
34565;SDS011;20803;42.676;26.348;2022-10-01T04:00:48;12.17;;;6.13;;
34565;SDS011;20803;42.676;26.348;2022-10-01T04:03:14;7.27;;;5.53;;
34565;SDS011;20803;42.676;26.348;2022-10-01T04:05:41;7.80;;;5.57;;
34565;SDS011;20803;42.676;26.348;2022-10-01T04:08:07;8.30;;;6.17;;
34565;SDS011;20803;42.676;26.348;2022-10-01T04:10:33;9.63;;;5.97;;
34565;SDS011;20803;42.676;26.348;2022-10-01T04:12:59;7.53;;;5.80;;
34565;SDS011;20803;42.676;26.348;2022-10-01T04:15:25;8.00;;;5.60;;
34565;SDS011;20803;42.676;26.348;2022-10-01T04:17:50;7.30;;;5.63;;
34565;SDS011;20803;42.676;26.348;2022-10-01T04:20:16;6.97;;;5.10;;
34565;SDS011;20803;42.676;26.348;2022-10-01T04:22:42;7.20;;;5.50;;
34565;SDS011;20803;42.676;26.348;2022-10-01T04:25:09;7.33;;;5.87;;
34565;SDS011;20803;42.676;26.348;2022-10-01T04:27:35;7.50;;;5.20;;
34565;SDS011;20803;42.676;26.348;2022-10-01T04:30:02;6.10;;;5.13;;
34565;SDS011;20803;42.676;26.348;2022-10-01T04:32:28;7.23;;;5.57;;
34565;SDS011;20803;42.676;26.348;2022-10-01T04:34:53;6.73;;;5.17;;
34565;SDS011;20803;42.676;26.348;2022-10-01T04:37:19;7.27;;;5.33;;
34565;SDS011;20803;42.676;26.348;2022-10-01T04:39:45;5.77;;;5.20;;
34565;SDS011;20803;42.676;26.348;2022-10-01T04:42:11;5.57;;;5.07;;
34565;SDS011;20803;42.676;26.348;2022-10-01T04:44:38;6.00;;;5.40;;
34565;SDS011;20803;42.676;26.348;2022-10-01T04:47:03;9.30;;;4.80;;
34565;SDS011;20803;42.676;26.348;2022-10-01T04:49:29;6.57;;;5.90;;
34565;SDS011;20803;42.676;26.348;2022-10-01T04:51:56;7.30;;;5.13;;
34565;SDS011;20803;42.676;26.348;2022-10-01T04:54:22;11.23;;;7.60;;
34565;SDS011;20803;42.676;26.348;2022-10-01T04:56:47;10.23;;;6.03;;
34565;SDS011;20803;42.676;26.348;2022-10-01T04:59:13;8.67;;;5.00;;
34565;SDS011;20803;42.676;26.348;2022-10-01T05:01:38;6.07;;;5.00;;
34565;SDS011;20803;42.676;26.348;2022-10-01T05:04:05;7.83;;;5.23;;
34565;SDS011;20803;42.676;26.348;2022-10-01T05:06:31;10.43;;;5.43;;
34565;SDS011;20803;42.676;26.348;2022-10-01T05:08:56;10.67;;;4.90;;
34565;SDS011;20803;42.676;26.348;2022-10-01T05:11:21;9.87;;;4.87;;
34565;SDS011;20803;42.676;26.348;2022-10-01T05:13:47;5.73;;;5.13;;
34565;SDS011;20803;42.676;26.348;2022-10-01T05:16:12;4.93;;;4.40;;
34565;SDS011;20803;42.676;26.348;2022-10-01T05:18:38;7.13;;;4.60;;
34565;SDS011;20803;42.676;26.348;2022-10-01T05:21:05;6.30;;;4.87;;
34565;SDS011;20803;42.676;26.348;2022-10-01T05:23:32;9.07;;;5.30;;
34565;SDS011;20803;42.676;26.348;2022-10-01T05:25:58;7.43;;;5.83;;
34565;SDS011;20803;42.676;26.348;2022-10-01T05:28:24;7.37;;;6.10;;
34565;SDS011;20803;42.676;26.348;2022-10-01T05:30:52;10.07;;;7.23;;
34565;SDS011;20803;42.676;26.348;2022-10-01T05:33:17;10.03;;;7.50;;
34565;SDS011;20803;42.676;26.348;2022-10-01T05:35:43;11.33;;;6.80;;
34565;SDS011;20803;42.676;26.348;2022-10-01T05:38:09;16.47;;;6.80;;
34565;SDS011;20803;42.676;26.348;2022-10-01T05:40:34;9.37;;;6.67;;
34565;SDS011;20803;42.676;26.348;2022-10-01T05:43:00;13.03;;;7.00;;
34565;SDS011;20803;42.676;26.348;2022-10-01T05:45:28;10.27;;;6.80;;
34565;SDS011;20803;42.676;26.348;2022-10-01T05:48:05;13.00;;;8.67;;
34565;SDS011;20803;42.676;26.348;2022-10-01T05:50:33;11.33;;;7.13;;
34565;SDS011;20803;42.676;26.348;2022-10-01T05:53:03;10.60;;;6.43;;
34565;SDS011;20803;42.676;26.348;2022-10-01T05:55:29;9.60;;;6.33;;
34565;SDS011;20803;42.676;26.348;2022-10-01T06:00:28;9.37;;;6.67;;
34565;SDS011;20803;42.676;26.348;2022-10-01T06:02:58;10.83;;;6.47;;
34565;SDS011;20803;42.676;26.348;2022-10-01T06:05:24;8.20;;;6.40;;
34565;SDS011;20803;42.676;26.348;2022-10-01T06:07:51;8.73;;;6.70;;
34565;SDS011;20803;42.676;26.348;2022-10-01T06:10:17;9.00;;;6.00;;
34565;SDS011;20803;42.676;26.348;2022-10-01T06:12:44;10.53;;;5.57;;
34565;SDS011;20803;42.676;26.348;2022-10-01T06:15:10;9.47;;;6.17;;
34565;SDS011;20803;42.676;26.348;2022-10-01T06:17:36;14.57;;;8.27;;
34565;SDS011;20803;42.676;26.348;2022-10-01T06:20:07;7.77;;;6.40;;
34565;SDS011;20803;42.676;26.348;2022-10-01T06:22:35;7.43;;;5.90;;
34565;SDS011;20803;42.676;26.348;2022-10-01T06:25:01;10.03;;;5.93;;
34565;SDS011;20803;42.676;26.348;2022-10-01T06:27:26;8.57;;;6.23;;
34565;SDS011;20803;42.676;26.348;2022-10-01T06:29:52;5.57;;;4.90;;
34565;SDS011;20803;42.676;26.348;2022-10-01T06:32:17;8.10;;;5.47;;
34565;SDS011;20803;42.676;26.348;2022-10-01T06:34:43;8.10;;;5.90;;
34565;SDS011;20803;42.676;26.348;2022-10-01T06:37:09;9.10;;;6.03;;
34565;SDS011;20803;42.676;26.348;2022-10-01T06:39:34;11.93;;;5.57;;
34565;SDS011;20803;42.676;26.348;2022-10-01T06:42:00;7.50;;;5.20;;
34565;SDS011;20803;42.676;26.348;2022-10-01T06:44:25;13.80;;;6.40;;
34565;SDS011;20803;42.676;26.348;2022-10-01T06:46:50;12.30;;;5.10;;
34565;SDS011;20803;42.676;26.348;2022-10-01T06:49:17;5.93;;;4.70;;
34565;SDS011;20803;42.676;26.348;2022-10-01T06:51:44;10.73;;;5.07;;
34565;SDS011;20803;42.676;26.348;2022-10-01T06:54:29;7.47;;;5.00;;
34565;SDS011;20803;42.676;26.348;2022-10-01T06:56:54;6.40;;;4.67;;
34565;SDS011;20803;42.676;26.348;2022-10-01T06:59:19;5.60;;;4.83;;
34565;SDS011;20803;42.676;26.348;2022-10-01T07:01:47;16.27;;;7.10;;
34565;SDS011;20803;42.676;26.348;2022-10-01T07:04:14;11.03;;;5.47;;
34565;SDS011;20803;42.676;26.348;2022-10-01T07:06:39;9.90;;;6.33;;
34565;SDS011;20803;42.676;26.348;2022-10-01T07:09:05;8.37;;;5.23;;
34565;SDS011;20803;42.676;26.348;2022-10-01T07:11:30;10.80;;;5.50;;
34565;SDS011;20803;42.676;26.348;2022-10-01T07:13:55;11.57;;;5.30;;
34565;SDS011;20803;42.676;26.348;2022-10-01T07:16:21;12.57;;;5.57;;
34565;SDS011;20803;42.676;26.348;2022-10-01T07:18:47;12.77;;;5.37;;
34565;SDS011;20803;42.676;26.348;2022-10-01T07:21:12;10.63;;;4.80;;
34565;SDS011;20803;42.676;26.348;2022-10-01T07:23:38;13.03;;;6.50;;
34565;SDS011;20803;42.676;26.348;2022-10-01T07:26:04;15.57;;;5.70;;
34565;SDS011;20803;42.676;26.348;2022-10-01T07:28:32;15.07;;;5.87;;
34565;SDS011;20803;42.676;26.348;2022-10-01T07:31:03;13.07;;;5.80;;
34565;SDS011;20803;42.676;26.348;2022-10-01T07:33:36;11.03;;;5.37;;
34565;SDS011;20803;42.676;26.348;2022-10-01T07:36:03;6.77;;;4.30;;
34565;SDS011;20803;42.676;26.348;2022-10-01T07:38:30;9.70;;;5.13;;
34565;SDS011;20803;42.676;26.348;2022-10-01T07:40:57;9.23;;;4.83;;
34565;SDS011;20803;42.676;26.348;2022-10-01T07:43:23;8.43;;;5.60;;
34565;SDS011;20803;42.676;26.348;2022-10-01T07:45:48;18.23;;;7.57;;
34565;SDS011;20803;42.676;26.348;2022-10-01T07:48:16;16.03;;;7.57;;
34565;SDS011;20803;42.676;26.348;2022-10-01T07:50:43;15.93;;;7.80;;
34565;SDS011;20803;42.676;26.348;2022-10-01T07:53:09;13.77;;;7.90;;
34565;SDS011;20803;42.676;26.348;2022-10-01T07:55:35;15.30;;;7.90;;
34565;SDS011;20803;42.676;26.348;2022-10-01T07:58:01;12.00;;;7.43;;
34565;SDS011;20803;42.676;26.348;2022-10-01T08:00:27;13.27;;;7.00;;
34565;SDS011;20803;42.676;26.348;2022-10-01T08:02:54;14.90;;;7.43;;
34565;SDS011;20803;42.676;26.348;2022-10-01T08:05:24;19.00;;;6.57;;
34565;SDS011;20803;42.676;26.348;2022-10-01T08:07:52;19.83;;;7.33;;
34565;SDS011;20803;42.676;26.348;2022-10-01T08:10:18;17.87;;;6.50;;
34565;SDS011;20803;42.676;26.348;2022-10-01T08:12:45;19.30;;;6.80;;
34565;SDS011;20803;42.676;26.348;2022-10-01T08:15:12;15.03;;;6.67;;
34565;SDS011;20803;42.676;26.348;2022-10-01T08:17:39;15.30;;;6.23;;
34565;SDS011;20803;42.676;26.348;2022-10-01T08:20:06;15.43;;;6.83;;
34565;SDS011;20803;42.676;26.348;2022-10-01T08:22:32;17.20;;;6.87;;
34565;SDS011;20803;42.676;26.348;2022-10-01T08:24:58;16.47;;;6.17;;
34565;SDS011;20803;42.676;26.348;2022-10-01T08:27:24;14.17;;;6.00;;
34565;SDS011;20803;42.676;26.348;2022-10-01T08:29:50;20.53;;;6.27;;
34565;SDS011;20803;42.676;26.348;2022-10-01T08:32:16;14.87;;;7.20;;
34565;SDS011;20803;42.676;26.348;2022-10-01T08:34:41;18.53;;;6.50;;
34565;SDS011;20803;42.676;26.348;2022-10-01T08:37:06;14.63;;;6.33;;
34565;SDS011;20803;42.676;26.348;2022-10-01T08:39:32;14.27;;;6.20;;
34565;SDS011;20803;42.676;26.348;2022-10-01T08:44:37;12.70;;;5.47;;
34565;SDS011;20803;42.676;26.348;2022-10-01T08:47:12;8.20;;;4.83;;
34565;SDS011;20803;42.676;26.348;2022-10-01T08:49:46;16.20;;;5.43;;
34565;SDS011;20803;42.676;26.348;2022-10-01T08:52:32;13.20;;;5.40;;
34565;SDS011;20803;42.676;26.348;2022-10-01T08:55:13;11.10;;;6.27;;
34565;SDS011;20803;42.676;26.348;2022-10-01T08:57:50;10.77;;;5.10;;
34565;SDS011;20803;42.676;26.348;2022-10-01T09:00:18;9.97;;;5.53;;
34565;SDS011;20803;42.676;26.348;2022-10-01T09:02:44;11.60;;;5.00;;
34565;SDS011;20803;42.676;26.348;2022-10-01T09:05:16;15.23;;;5.27;;
34565;SDS011;20803;42.676;26.348;2022-10-01T09:21:40;11.20;;;5.00;;
34565;SDS011;20803;42.676;26.348;2022-10-01T09:24:14;7.27;;;5.53;;
34565;SDS011;20803;42.676;26.348;2022-10-01T09:26:46;9.03;;;5.20;;
34565;SDS011;20803;42.676;26.348;2022-10-01T09:32:14;9.50;;;5.13;;
34565;SDS011;20803;42.676;26.348;2022-10-01T09:34:43;9.47;;;5.50;;
34565;SDS011;20803;42.676;26.348;2022-10-01T09:42:57;9.30;;;6.37;;
34565;SDS011;20803;42.676;26.348;2022-10-01T09:45:22;10.10;;;6.17;;
34565;SDS011;20803;42.676;26.348;2022-10-01T09:47:49;8.67;;;4.90;;
34565;SDS011;20803;42.676;26.348;2022-10-01T09:50:28;12.20;;;5.43;;
34565;SDS011;20803;42.676;26.348;2022-10-01T09:53:00;8.90;;;5.03;;
34565;SDS011;20803;42.676;26.348;2022-10-01T09:55:28;11.53;;;5.67;;
34565;SDS011;20803;42.676;26.348;2022-10-01T10:00:46;9.40;;;5.00;;
34565;SDS011;20803;42.676;26.348;2022-10-01T10:03:24;7.23;;;5.30;;
34565;SDS011;20803;42.676;26.348;2022-10-01T10:05:54;13.40;;;6.03;;
34565;SDS011;20803;42.676;26.348;2022-10-01T10:08:33;11.10;;;5.87;;
34565;SDS011;20803;42.676;26.348;2022-10-01T10:11:01;7.63;;;4.70;;
34565;SDS011;20803;42.676;26.348;2022-10-01T10:13:40;8.50;;;5.37;;
34565;SDS011;20803;42.676;26.348;2022-10-01T10:16:14;9.40;;;4.80;;
34565;SDS011;20803;42.676;26.348;2022-10-01T10:18:41;6.47;;;4.87;;
34565;SDS011;20803;42.676;26.348;2022-10-01T10:21:17;7.50;;;4.57;;
34565;SDS011;20803;42.676;26.348;2022-10-01T10:23:56;10.63;;;5.20;;
34565;SDS011;20803;42.676;26.348;2022-10-01T10:26:26;5.20;;;4.37;;
34565;SDS011;20803;42.676;26.348;2022-10-01T10:29:03;6.80;;;4.67;;
34565;SDS011;20803;42.676;26.348;2022-10-01T10:31:43;7.70;;;4.27;;
34565;SDS011;20803;42.676;26.348;2022-10-01T10:37:02;11.07;;;4.90;;
34565;SDS011;20803;42.676;26.348;2022-10-01T10:39:35;9.03;;;4.83;;
34565;SDS011;20803;42.676;26.348;2022-10-01T10:42:04;7.43;;;4.90;;
34565;SDS011;20803;42.676;26.348;2022-10-01T10:44:32;7.20;;;4.73;;
34565;SDS011;20803;42.676;26.348;2022-10-01T10:47:07;5.60;;;5.00;;
34565;SDS011;20803;42.676;26.348;2022-10-01T10:49:42;7.63;;;4.77;;
34565;SDS011;20803;42.676;26.348;2022-10-01T10:52:16;4.50;;;4.03;;
34565;SDS011;20803;42.676;26.348;2022-10-01T10:54:44;6.33;;;4.50;;
34565;SDS011;20803;42.676;26.348;2022-10-01T10:57:16;6.23;;;4.50;;
34565;SDS011;20803;42.676;26.348;2022-10-01T10:59:58;8.87;;;4.33;;
34565;SDS011;20803;42.676;26.348;2022-10-01T11:03:03;9.70;;;4.73;;
34565;SDS011;20803;42.676;26.348;2022-10-01T11:05:31;5.87;;;4.20;;
34565;SDS011;20803;42.676;26.348;2022-10-01T11:08:04;12.23;;;4.40;;
34565;SDS011;20803;42.676;26.348;2022-10-01T11:13:40;8.37;;;4.10;;
34565;SDS011;20803;42.676;26.348;2022-10-01T11:19:27;8.50;;;4.57;;
34565;SDS011;20803;42.676;26.348;2022-10-01T11:27:32;4.67;;;4.03;;
34565;SDS011;20803;42.676;26.348;2022-10-01T11:30:09;5.77;;;4.20;;
34565;SDS011;20803;42.676;26.348;2022-10-01T11:43:56;7.67;;;4.60;;
34565;SDS011;20803;42.676;26.348;2022-10-01T11:52:01;5.73;;;3.93;;
34565;SDS011;20803;42.676;26.348;2022-10-01T11:54:39;5.23;;;4.50;;
34565;SDS011;20803;42.676;26.348;2022-10-01T11:57:45;8.33;;;4.60;;
34565;SDS011;20803;42.676;26.348;2022-10-01T12:00:34;7.13;;;4.37;;
34565;SDS011;20803;42.676;26.348;2022-10-01T12:03:02;8.10;;;3.93;;
34565;SDS011;20803;42.676;26.348;2022-10-01T12:05:37;7.27;;;4.40;;
34565;SDS011;20803;42.676;26.348;2022-10-01T12:13:40;8.30;;;4.33;;
34565;SDS011;20803;42.676;26.348;2022-10-01T12:16:13;7.57;;;4.70;;
34565;SDS011;20803;42.676;26.348;2022-10-01T12:18:46;5.53;;;4.47;;
34565;SDS011;20803;42.676;26.348;2022-10-01T12:21:21;7.83;;;4.60;;
34565;SDS011;20803;42.676;26.348;2022-10-01T12:23:52;8.17;;;4.70;;
34565;SDS011;20803;42.676;26.348;2022-10-01T12:28:56;5.67;;;4.40;;
34565;SDS011;20803;42.676;26.348;2022-10-01T12:34:28;10.20;;;5.07;;
34565;SDS011;20803;42.676;26.348;2022-10-01T12:37:08;6.93;;;5.03;;
34565;SDS011;20803;42.676;26.348;2022-10-01T12:39:47;5.73;;;4.70;;
34565;SDS011;20803;42.676;26.348;2022-10-01T12:45:29;10.73;;;4.67;;
34565;SDS011;20803;42.676;26.348;2022-10-01T12:50:50;6.07;;;4.53;;
34565;SDS011;20803;42.676;26.348;2022-10-01T12:56:23;8.23;;;5.30;;
34565;SDS011;20803;42.676;26.348;2022-10-01T13:04:33;9.57;;;5.17;;
34565;SDS011;20803;42.676;26.348;2022-10-01T13:14:52;7.23;;;5.00;;
34565;SDS011;20803;42.676;26.348;2022-10-01T13:19:57;6.80;;;5.60;;
34565;SDS011;20803;42.676;26.348;2022-10-01T13:22:38;5.47;;;4.77;;
34565;SDS011;20803;42.676;26.348;2022-10-01T13:25:31;7.00;;;5.23;;
34565;SDS011;20803;42.676;26.348;2022-10-01T13:28:40;6.17;;;4.70;;
34565;SDS011;20803;42.676;26.348;2022-10-01T13:31:18;7.90;;;5.37;;
34565;SDS011;20803;42.676;26.348;2022-10-01T13:33:53;9.53;;;5.23;;
34565;SDS011;20803;42.676;26.348;2022-10-01T13:36:30;6.90;;;4.80;;
34565;SDS011;20803;42.676;26.348;2022-10-01T13:38:57;7.27;;;4.50;;
34565;SDS011;20803;42.676;26.348;2022-10-01T13:41:30;11.43;;;5.20;;
34565;SDS011;20803;42.676;26.348;2022-10-01T13:44:02;5.50;;;4.93;;
34565;SDS011;20803;42.676;26.348;2022-10-01T13:46:29;8.83;;;5.13;;
34565;SDS011;20803;42.676;26.348;2022-10-01T13:49:05;8.10;;;4.90;;
34565;SDS011;20803;42.676;26.348;2022-10-01T13:51:41;8.83;;;5.20;;
34565;SDS011;20803;42.676;26.348;2022-10-01T13:54:24;8.73;;;4.50;;
34565;SDS011;20803;42.676;26.348;2022-10-01T13:56:53;6.03;;;4.63;;
34565;SDS011;20803;42.676;26.348;2022-10-01T13:59:32;7.33;;;4.67;;
34565;SDS011;20803;42.676;26.348;2022-10-01T14:02:00;8.83;;;4.77;;
34565;SDS011;20803;42.676;26.348;2022-10-01T14:04:33;8.97;;;4.67;;
34565;SDS011;20803;42.676;26.348;2022-10-01T14:07:21;12.03;;;7.53;;
34565;SDS011;20803;42.676;26.348;2022-10-01T14:09:52;9.00;;;5.67;;
34565;SDS011;20803;42.676;26.348;2022-10-01T14:12:22;9.57;;;5.07;;
34565;SDS011;20803;42.676;26.348;2022-10-01T14:15:16;11.73;;;5.93;;
34565;SDS011;20803;42.676;26.348;2022-10-01T14:18:05;8.80;;;5.13;;
34565;SDS011;20803;42.676;26.348;2022-10-01T14:23:54;6.80;;;4.93;;
34565;SDS011;20803;42.676;26.348;2022-10-01T14:26:38;7.00;;;5.10;;
34565;SDS011;20803;42.676;26.348;2022-10-01T14:29:11;5.30;;;4.80;;
34565;SDS011;20803;42.676;26.348;2022-10-01T14:36:59;10.23;;;6.73;;
34565;SDS011;20803;42.676;26.348;2022-10-01T14:39:25;9.10;;;6.53;;
34565;SDS011;20803;42.676;26.348;2022-10-01T14:41:53;7.67;;;5.37;;
34565;SDS011;20803;42.676;26.348;2022-10-01T14:44:27;11.50;;;5.70;;
34565;SDS011;20803;42.676;26.348;2022-10-01T14:46:56;7.80;;;5.40;;
34565;SDS011;20803;42.676;26.348;2022-10-01T14:54:24;9.57;;;5.27;;
34565;SDS011;20803;42.676;26.348;2022-10-01T14:56:50;7.53;;;5.97;;
34565;SDS011;20803;42.676;26.348;2022-10-01T14:59:21;5.40;;;4.87;;
34565;SDS011;20803;42.676;26.348;2022-10-01T15:01:59;10.77;;;5.63;;
34565;SDS011;20803;42.676;26.348;2022-10-01T15:04:26;8.30;;;5.50;;
34565;SDS011;20803;42.676;26.348;2022-10-01T15:06:51;8.57;;;6.20;;
34565;SDS011;20803;42.676;26.348;2022-10-01T15:09:17;7.47;;;5.60;;
34565;SDS011;20803;42.676;26.348;2022-10-01T15:11:45;9.60;;;5.73;;
34565;SDS011;20803;42.676;26.348;2022-10-01T15:14:14;6.20;;;5.60;;
34565;SDS011;20803;42.676;26.348;2022-10-01T15:16:45;12.40;;;5.90;;
34565;SDS011;20803;42.676;26.348;2022-10-01T15:19:12;10.37;;;5.80;;
34565;SDS011;20803;42.676;26.348;2022-10-01T15:24:35;13.20;;;8.33;;
34565;SDS011;20803;42.676;26.348;2022-10-01T15:27:04;11.50;;;8.77;;
34565;SDS011;20803;42.676;26.348;2022-10-01T15:29:32;10.73;;;6.60;;
34565;SDS011;20803;42.676;26.348;2022-10-01T15:31:58;13.13;;;7.57;;
34565;SDS011;20803;42.676;26.348;2022-10-01T15:34:24;15.33;;;8.57;;
34565;SDS011;20803;42.676;26.348;2022-10-01T15:36:51;18.13;;;8.03;;
34565;SDS011;20803;42.676;26.348;2022-10-01T15:39:37;13.97;;;8.17;;
34565;SDS011;20803;42.676;26.348;2022-10-01T15:42:26;16.73;;;7.30;;
34565;SDS011;20803;42.676;26.348;2022-10-01T15:47:37;17.13;;;6.83;;
34565;SDS011;20803;42.676;26.348;2022-10-01T16:00:52;8.27;;;4.50;;
34565;SDS011;20803;42.676;26.348;2022-10-01T16:03:26;9.43;;;5.90;;
34565;SDS011;20803;42.676;26.348;2022-10-01T16:05:56;11.37;;;5.67;;
34565;SDS011;20803;42.676;26.348;2022-10-01T16:08:26;8.83;;;5.10;;
34565;SDS011;20803;42.676;26.348;2022-10-01T16:13:33;9.27;;;6.13;;
34565;SDS011;20803;42.676;26.348;2022-10-01T16:18:34;8.73;;;5.47;;
34565;SDS011;20803;42.676;26.348;2022-10-01T16:21:02;11.53;;;5.40;;
34565;SDS011;20803;42.676;26.348;2022-10-01T16:23:33;8.83;;;4.60;;
34565;SDS011;20803;42.676;26.348;2022-10-01T16:26:28;9.50;;;6.10;;
34565;SDS011;20803;42.676;26.348;2022-10-01T16:28:52;8.77;;;5.73;;
34565;SDS011;20803;42.676;26.348;2022-10-01T16:31:19;13.77;;;5.07;;
34565;SDS011;20803;42.676;26.348;2022-10-01T16:33:44;59.67;;;26.53;;
34565;SDS011;20803;42.676;26.348;2022-10-01T16:36:12;43.43;;;24.77;;
34565;SDS011;20803;42.676;26.348;2022-10-01T16:38:46;47.23;;;26.20;;
34565;SDS011;20803;42.676;26.348;2022-10-01T16:41:13;36.97;;;18.40;;
34565;SDS011;20803;42.676;26.348;2022-10-01T16:43:49;50.73;;;24.87;;
34565;SDS011;20803;42.676;26.348;2022-10-01T16:46:17;30.67;;;18.87;;
34565;SDS011;20803;42.676;26.348;2022-10-01T16:48:44;19.67;;;10.10;;
34565;SDS011;20803;42.676;26.348;2022-10-01T16:51:11;16.90;;;10.17;;
34565;SDS011;20803;42.676;26.348;2022-10-01T16:53:37;14.17;;;8.83;;
34565;SDS011;20803;42.676;26.348;2022-10-01T16:56:03;52.03;;;23.27;;
34565;SDS011;20803;42.676;26.348;2022-10-01T16:58:28;17.03;;;9.17;;
34565;SDS011;20803;42.676;26.348;2022-10-01T17:00:54;22.10;;;10.37;;
34565;SDS011;20803;42.676;26.348;2022-10-01T17:03:20;24.33;;;12.33;;
34565;SDS011;20803;42.676;26.348;2022-10-01T17:05:49;22.30;;;11.53;;
34565;SDS011;20803;42.676;26.348;2022-10-01T17:08:14;28.43;;;12.63;;
34565;SDS011;20803;42.676;26.348;2022-10-01T17:10:44;17.53;;;10.60;;
34565;SDS011;20803;42.676;26.348;2022-10-01T17:13:15;20.87;;;10.60;;
34565;SDS011;20803;42.676;26.348;2022-10-01T17:15:41;17.13;;;10.57;;
34565;SDS011;20803;42.676;26.348;2022-10-01T17:18:06;14.73;;;8.83;;
34565;SDS011;20803;42.676;26.348;2022-10-01T17:20:37;16.80;;;9.20;;
34565;SDS011;20803;42.676;26.348;2022-10-01T17:23:03;11.70;;;8.93;;
34565;SDS011;20803;42.676;26.348;2022-10-01T17:25:30;15.80;;;9.03;;
34565;SDS011;20803;42.676;26.348;2022-10-01T17:27:58;15.10;;;8.43;;
34565;SDS011;20803;42.676;26.348;2022-10-01T17:30:26;11.07;;;7.30;;
34565;SDS011;20803;42.676;26.348;2022-10-01T17:32:56;12.73;;;8.20;;
34565;SDS011;20803;42.676;26.348;2022-10-01T17:35:23;10.57;;;7.93;;
34565;SDS011;20803;42.676;26.348;2022-10-01T17:37:50;11.77;;;7.53;;